sensor_id;sensor_type;location;lat;lon;timestamp;temperature;humidity
22114;DHT22;11223;49.968;9.062;2022-11-18T00:02:13;8.50;99.90
22114;DHT22;11223;49.968;9.062;2022-11-18T00:04:39;8.50;99.90
22114;DHT22;11223;49.968;9.062;2022-11-18T00:07:04;8.50;99.90
22114;DHT22;11223;49.968;9.062;2022-11-18T00:09:30;8.50;99.90
22114;DHT22;11223;49.968;9.062;2022-11-18T00:11:55;8.40;99.90
22114;DHT22;11223;49.968;9.062;2022-11-18T00:14:39;8.40;99.90
22114;DHT22;11223;49.968;9.062;2022-11-18T00:17:06;8.40;99.90
22114;DHT22;11223;49.968;9.062;2022-11-18T00:19:38;8.30;99.90
22114;DHT22;11223;49.968;9.062;2022-11-18T00:22:05;8.30;99.90
22114;DHT22;11223;49.968;9.062;2022-11-18T00:24:31;8.20;99.90
22114;DHT22;11223;49.968;9.062;2022-11-18T00:26:57;8.20;99.90
22114;DHT22;11223;49.968;9.062;2022-11-18T00:29:23;8.20;99.90
22114;DHT22;11223;49.968;9.062;2022-11-18T00:31:51;8.10;99.90
22114;DHT22;11223;49.968;9.062;2022-11-18T00:34:17;8.10;99.90
22114;DHT22;11223;49.968;9.062;2022-11-18T00:36:44;8.00;99.90
22114;DHT22;11223;49.968;9.062;2022-11-18T00:39:11;8.00;99.90
22114;DHT22;11223;49.968;9.062;2022-11-18T00:41:36;8.00;99.90
22114;DHT22;11223;49.968;9.062;2022-11-18T00:44:21;8.00;99.90
22114;DHT22;11223;49.968;9.062;2022-11-18T00:46:46;8.00;99.90
22114;DHT22;11223;49.968;9.062;2022-11-18T00:49:12;8.00;99.90
22114;DHT22;11223;49.968;9.062;2022-11-18T00:51:37;8.00;99.90
22114;DHT22;11223;49.968;9.062;2022-11-18T00:54:03;8.00;99.90
22114;DHT22;11223;49.968;9.062;2022-11-18T00:56:29;8.00;99.90
22114;DHT22;11223;49.968;9.062;2022-11-18T00:58:54;8.00;99.90
22114;DHT22;11223;49.968;9.062;2022-11-18T01:01:20;8.00;99.90
22114;DHT22;11223;49.968;9.062;2022-11-18T01:03:46;8.00;99.90
22114;DHT22;11223;49.968;9.062;2022-11-18T01:06:11;8.00;99.90
22114;DHT22;11223;49.968;9.062;2022-11-18T01:08:37;8.00;99.90
22114;DHT22;11223;49.968;9.062;2022-11-18T01:11:03;8.00;99.90
22114;DHT22;11223;49.968;9.062;2022-11-18T01:13:54;8.00;99.90
22114;DHT22;11223;49.968;9.062;2022-11-18T01:16:23;8.00;99.90
22114;DHT22;11223;49.968;9.062;2022-11-18T01:18:49;8.00;99.90
22114;DHT22;11223;49.968;9.062;2022-11-18T01:21:15;8.00;99.90
22114;DHT22;11223;49.968;9.062;2022-11-18T01:23:40;8.10;99.90
22114;DHT22;11223;49.968;9.062;2022-11-18T01:26:08;8.10;99.90
22114;DHT22;11223;49.968;9.062;2022-11-18T01:28:35;8.10;99.90
22114;DHT22;11223;49.968;9.062;2022-11-18T01:31:07;8.10;99.90
22114;DHT22;11223;49.968;9.062;2022-11-18T01:33:33;8.10;99.90
22114;DHT22;11223;49.968;9.062;2022-11-18T01:35:58;8.10;99.90
22114;DHT22;11223;49.968;9.062;2022-11-18T01:38:24;8.10;99.90
22114;DHT22;11223;49.968;9.062;2022-11-18T01:40:50;8.10;99.90
22114;DHT22;11223;49.968;9.062;2022-11-18T01:43:18;8.20;99.90
22114;DHT22;11223;49.968;9.062;2022-11-18T01:45:45;8.20;99.90
22114;DHT22;11223;49.968;9.062;2022-11-18T01:48:27;8.20;99.90
22114;DHT22;11223;49.968;9.062;2022-11-18T01:51:05;8.20;99.90
22114;DHT22;11223;49.968;9.062;2022-11-18T01:53:46;8.30;99.90
22114;DHT22;11223;49.968;9.062;2022-11-18T01:56:20;8.20;99.90
22114;DHT22;11223;49.968;9.062;2022-11-18T01:58:56;8.20;99.90
22114;DHT22;11223;49.968;9.062;2022-11-18T02:01:23;8.20;99.90
22114;DHT22;11223;49.968;9.062;2022-11-18T02:03:49;8.20;99.90
22114;DHT22;11223;49.968;9.062;2022-11-18T02:06:17;8.20;99.90
22114;DHT22;11223;49.968;9.062;2022-11-18T02:08:43;8.20;99.90
22114;DHT22;11223;49.968;9.062;2022-11-18T02:11:11;8.20;99.90
22114;DHT22;11223;49.968;9.062;2022-11-18T02:13:57;8.20;99.90
22114;DHT22;11223;49.968;9.062;2022-11-18T02:27:57;8.30;99.90
22114;DHT22;11223;49.968;9.062;2022-11-18T02:30:32;8.30;99.90
22114;DHT22;11223;49.968;9.062;2022-11-18T02:33:09;8.40;99.90
22114;DHT22;11223;49.968;9.062;2022-11-18T02:35:42;8.30;99.90
22114;DHT22;11223;49.968;9.062;2022-11-18T02:38:22;8.40;99.90
22114;DHT22;11223;49.968;9.062;2022-11-18T02:40:52;8.40;99.90
22114;DHT22;11223;49.968;9.062;2022-11-18T02:43:28;8.40;99.90
22114;DHT22;11223;49.968;9.062;2022-11-18T02:46:01;8.40;99.90
22114;DHT22;11223;49.968;9.062;2022-11-18T02:48:30;8.40;99.90
22114;DHT22;11223;49.968;9.062;2022-11-18T02:50:57;8.40;99.90
22114;DHT22;11223;49.968;9.062;2022-11-18T02:53:26;8.40;99.90
22114;DHT22;11223;49.968;9.062;2022-11-18T02:55:53;8.40;99.90
22114;DHT22;11223;49.968;9.062;2022-11-18T02:58:20;8.40;99.90
22114;DHT22;11223;49.968;9.062;2022-11-18T03:00:58;8.40;99.90
22114;DHT22;11223;49.968;9.062;2022-11-18T03:03:30;8.40;99.90
22114;DHT22;11223;49.968;9.062;2022-11-18T03:08:53;8.40;99.90
22114;DHT22;11223;49.968;9.062;2022-11-18T03:11:25;8.50;99.90
22114;DHT22;11223;49.968;9.062;2022-11-18T03:22:09;8.50;99.90
22114;DHT22;11223;49.968;9.062;2022-11-18T03:24:39;8.50;99.90
22114;DHT22;11223;49.968;9.062;2022-11-18T03:27:30;8.50;99.90
22114;DHT22;11223;49.968;9.062;2022-11-18T03:30:03;8.50;99.90
22114;DHT22;11223;49.968;9.062;2022-11-18T03:32:32;8.50;99.90
22114;DHT22;11223;49.968;9.062;2022-11-18T03:35:06;8.60;99.90
22114;DHT22;11223;49.968;9.062;2022-11-18T03:37:34;8.60;99.90
22114;DHT22;11223;49.968;9.062;2022-11-18T03:40:15;8.60;99.90
22114;DHT22;11223;49.968;9.062;2022-11-18T03:42:45;8.60;99.90
22114;DHT22;11223;49.968;9.062;2022-11-18T03:45:19;8.60;99.90
22114;DHT22;11223;49.968;9.062;2022-11-18T03:47:53;8.60;99.90
22114;DHT22;11223;49.968;9.062;2022-11-18T03:50:26;8.60;99.90
22114;DHT22;11223;49.968;9.062;2022-11-18T03:52:54;8.60;99.90
22114;DHT22;11223;49.968;9.062;2022-11-18T03:55:23;8.70;99.90
22114;DHT22;11223;49.968;9.062;2022-11-18T03:58:24;8.60;99.90
22114;DHT22;11223;49.968;9.062;2022-11-18T04:00:57;8.60;99.90
22114;DHT22;11223;49.968;9.062;2022-11-18T04:03:23;8.60;99.90
22114;DHT22;11223;49.968;9.062;2022-11-18T04:05:54;8.60;99.90
22114;DHT22;11223;49.968;9.062;2022-11-18T04:08:27;8.70;99.90
22114;DHT22;11223;49.968;9.062;2022-11-18T04:11:14;8.60;99.90
22114;DHT22;11223;49.968;9.062;2022-11-18T04:14:02;8.60;99.90
22114;DHT22;11223;49.968;9.062;2022-11-18T04:16:28;8.70;99.90
22114;DHT22;11223;49.968;9.062;2022-11-18T04:18:54;8.70;99.90
22114;DHT22;11223;49.968;9.062;2022-11-18T04:21:20;8.70;99.90
22114;DHT22;11223;49.968;9.062;2022-11-18T04:23:45;8.70;99.90
22114;DHT22;11223;49.968;9.062;2022-11-18T04:26:11;8.70;99.90
22114;DHT22;11223;49.968;9.062;2022-11-18T04:28:37;8.70;99.90
22114;DHT22;11223;49.968;9.062;2022-11-18T04:31:02;8.70;99.90
22114;DHT22;11223;49.968;9.062;2022-11-18T04:33:28;8.70;99.90
22114;DHT22;11223;49.968;9.062;2022-11-18T04:35:53;8.70;99.90
22114;DHT22;11223;49.968;9.062;2022-11-18T04:38:19;8.70;99.90
22114;DHT22;11223;49.968;9.062;2022-11-18T04:40:45;8.70;99.90
22114;DHT22;11223;49.968;9.062;2022-11-18T04:43:11;8.80;99.90
22114;DHT22;11223;49.968;9.062;2022-11-18T04:45:36;8.80;99.90
22114;DHT22;11223;49.968;9.062;2022-11-18T04:48:02;8.80;99.90
22114;DHT22;11223;49.968;9.062;2022-11-18T04:50:28;8.80;99.90
22114;DHT22;11223;49.968;9.062;2022-11-18T04:52:53;8.80;99.90
22114;DHT22;11223;49.968;9.062;2022-11-18T04:55:19;8.80;99.90
22114;DHT22;11223;49.968;9.062;2022-11-18T04:57:44;8.70;99.90
22114;DHT22;11223;49.968;9.062;2022-11-18T05:00:11;8.70;99.90
22114;DHT22;11223;49.968;9.062;2022-11-18T05:02:36;8.70;99.90
22114;DHT22;11223;49.968;9.062;2022-11-18T05:05:02;8.70;99.90
22114;DHT22;11223;49.968;9.062;2022-11-18T05:07:28;8.70;99.90
22114;DHT22;11223;49.968;9.062;2022-11-18T05:09:53;8.70;99.90
22114;DHT22;11223;49.968;9.062;2022-11-18T05:12:19;8.70;99.90
22114;DHT22;11223;49.968;9.062;2022-11-18T05:15:03;8.70;99.90
22114;DHT22;11223;49.968;9.062;2022-11-18T05:17:29;8.70;99.90
22114;DHT22;11223;49.968;9.062;2022-11-18T05:19:55;8.70;99.90
22114;DHT22;11223;49.968;9.062;2022-11-18T05:22:21;8.70;99.90
22114;DHT22;11223;49.968;9.062;2022-11-18T05:24:46;8.70;99.90
22114;DHT22;11223;49.968;9.062;2022-11-18T05:27:12;8.70;99.90
22114;DHT22;11223;49.968;9.062;2022-11-18T05:29:38;8.70;99.90
22114;DHT22;11223;49.968;9.062;2022-11-18T05:32:04;8.70;99.90
22114;DHT22;11223;49.968;9.062;2022-11-18T05:34:29;8.70;99.90
22114;DHT22;11223;49.968;9.062;2022-11-18T05:36:55;8.70;99.90
22114;DHT22;11223;49.968;9.062;2022-11-18T05:39:21;8.70;99.90
22114;DHT22;11223;49.968;9.062;2022-11-18T05:41:46;8.60;99.90
22114;DHT22;11223;49.968;9.062;2022-11-18T05:44:30;8.60;99.90
22114;DHT22;11223;49.968;9.062;2022-11-18T05:46:56;8.60;99.90
22114;DHT22;11223;49.968;9.062;2022-11-18T05:49:22;8.60;99.90
22114;DHT22;11223;49.968;9.062;2022-11-18T05:51:48;8.60;99.90
22114;DHT22;11223;49.968;9.062;2022-11-18T05:54:15;8.60;99.90
22114;DHT22;11223;49.968;9.062;2022-11-18T05:56:42;8.60;99.90
22114;DHT22;11223;49.968;9.062;2022-11-18T05:59:12;8.50;99.90
22114;DHT22;11223;49.968;9.062;2022-11-18T06:02:01;8.50;99.90
22114;DHT22;11223;49.968;9.062;2022-11-18T06:04:35;8.50;99.90
22114;DHT22;11223;49.968;9.062;2022-11-18T06:07:05;8.50;99.90
22114;DHT22;11223;49.968;9.062;2022-11-18T06:09:34;8.50;99.90
22114;DHT22;11223;49.968;9.062;2022-11-18T06:12:03;8.50;99.90
22114;DHT22;11223;49.968;9.062;2022-11-18T06:14:42;8.50;99.90
22114;DHT22;11223;49.968;9.062;2022-11-18T06:17:13;8.50;99.90
22114;DHT22;11223;49.968;9.062;2022-11-18T06:19:40;8.50;99.90
22114;DHT22;11223;49.968;9.062;2022-11-18T06:22:06;8.50;99.90
22114;DHT22;11223;49.968;9.062;2022-11-18T06:24:33;8.50;99.90
22114;DHT22;11223;49.968;9.062;2022-11-18T06:26:59;8.50;99.90
22114;DHT22;11223;49.968;9.062;2022-11-18T06:29:25;8.60;99.90
22114;DHT22;11223;49.968;9.062;2022-11-18T06:31:51;8.60;99.90
22114;DHT22;11223;49.968;9.062;2022-11-18T06:34:17;8.60;99.90
22114;DHT22;11223;49.968;9.062;2022-11-18T06:36:43;8.60;99.90
22114;DHT22;11223;49.968;9.062;2022-11-18T06:39:08;8.60;99.90
22114;DHT22;11223;49.968;9.062;2022-11-18T06:41:34;8.60;99.90
22114;DHT22;11223;49.968;9.062;2022-11-18T06:44:00;8.60;99.90
22114;DHT22;11223;49.968;9.062;2022-11-18T06:46:25;8.60;99.90
22114;DHT22;11223;49.968;9.062;2022-11-18T06:49:09;8.60;99.90
22114;DHT22;11223;49.968;9.062;2022-11-18T06:51:36;8.50;99.90
22114;DHT22;11223;49.968;9.062;2022-11-18T06:54:02;8.50;99.90
22114;DHT22;11223;49.968;9.062;2022-11-18T06:56:27;8.50;99.90
22114;DHT22;11223;49.968;9.062;2022-11-18T06:58:54;8.60;99.90
22114;DHT22;11223;49.968;9.062;2022-11-18T07:01:23;8.50;99.90
22114;DHT22;11223;49.968;9.062;2022-11-18T07:03:49;8.50;99.90
22114;DHT22;11223;49.968;9.062;2022-11-18T07:06:17;8.60;99.90
22114;DHT22;11223;49.968;9.062;2022-11-18T07:08:43;8.60;99.90
22114;DHT22;11223;49.968;9.062;2022-11-18T07:11:12;8.60;99.90
22114;DHT22;11223;49.968;9.062;2022-11-18T07:13:38;8.60;99.90
22114;DHT22;11223;49.968;9.062;2022-11-18T07:16:09;8.60;99.90
22114;DHT22;11223;49.968;9.062;2022-11-18T07:18:37;8.60;99.90
22114;DHT22;11223;49.968;9.062;2022-11-18T07:21:04;8.60;99.90
22114;DHT22;11223;49.968;9.062;2022-11-18T07:23:32;8.60;99.90
22114;DHT22;11223;49.968;9.062;2022-11-18T07:25:58;8.60;99.90
22114;DHT22;11223;49.968;9.062;2022-11-18T07:28:23;8.60;99.90
22114;DHT22;11223;49.968;9.062;2022-11-18T07:30:49;8.60;99.90
22114;DHT22;11223;49.968;9.062;2022-11-18T07:33:15;8.60;99.90
22114;DHT22;11223;49.968;9.062;2022-11-18T07:35:41;8.60;99.90
22114;DHT22;11223;49.968;9.062;2022-11-18T07:38:06;8.60;99.90
22114;DHT22;11223;49.968;9.062;2022-11-18T07:40:32;8.70;99.90
22114;DHT22;11223;49.968;9.062;2022-11-18T07:42:58;8.70;99.90
22114;DHT22;11223;49.968;9.062;2022-11-18T07:45:23;8.70;99.90
22114;DHT22;11223;49.968;9.062;2022-11-18T07:47:49;8.70;99.90
22114;DHT22;11223;49.968;9.062;2022-11-18T07:50:16;8.80;99.90
22114;DHT22;11223;49.968;9.062;2022-11-18T07:52:42;8.80;99.90
22114;DHT22;11223;49.968;9.062;2022-11-18T07:55:08;8.80;99.90
22114;DHT22;11223;49.968;9.062;2022-11-18T07:57:33;8.80;99.90
22114;DHT22;11223;49.968;9.062;2022-11-18T07:59:59;8.90;99.90
22114;DHT22;11223;49.968;9.062;2022-11-18T08:02:24;8.90;99.90
22114;DHT22;11223;49.968;9.062;2022-11-18T08:04:50;8.90;99.90
22114;DHT22;11223;49.968;9.062;2022-11-18T08:07:16;8.90;99.90
22114;DHT22;11223;49.968;9.062;2022-11-18T08:09:41;8.90;99.90
22114;DHT22;11223;49.968;9.062;2022-11-18T08:12:07;8.90;99.90
22114;DHT22;11223;49.968;9.062;2022-11-18T08:14:32;8.90;99.90
22114;DHT22;11223;49.968;9.062;2022-11-18T08:16:58;8.90;99.90
22114;DHT22;11223;49.968;9.062;2022-11-18T08:19:23;8.90;99.90
22114;DHT22;11223;49.968;9.062;2022-11-18T08:21:49;8.90;99.90
22114;DHT22;11223;49.968;9.062;2022-11-18T08:24:15;8.90;99.90
22114;DHT22;11223;49.968;9.062;2022-11-18T08:26:40;8.90;99.90
22114;DHT22;11223;49.968;9.062;2022-11-18T08:29:06;8.90;99.90
22114;DHT22;11223;49.968;9.062;2022-11-18T08:31:31;8.90;99.90
22114;DHT22;11223;49.968;9.062;2022-11-18T08:33:59;8.90;99.90
22114;DHT22;11223;49.968;9.062;2022-11-18T08:36:27;9.00;99.90
22114;DHT22;11223;49.968;9.062;2022-11-18T08:38:55;9.00;99.90
22114;DHT22;11223;49.968;9.062;2022-11-18T08:41:28;9.00;99.90
22114;DHT22;11223;49.968;9.062;2022-11-18T08:43:55;9.00;99.90
22114;DHT22;11223;49.968;9.062;2022-11-18T08:46:21;9.10;99.90
22114;DHT22;11223;49.968;9.062;2022-11-18T08:48:47;9.10;99.90
22114;DHT22;11223;49.968;9.062;2022-11-18T08:51:13;9.10;99.90
22114;DHT22;11223;49.968;9.062;2022-11-18T08:53:40;9.20;99.90
22114;DHT22;11223;49.968;9.062;2022-11-18T08:56:06;9.20;99.90
22114;DHT22;11223;49.968;9.062;2022-11-18T08:58:32;9.20;99.90
22114;DHT22;11223;49.968;9.062;2022-11-18T09:01:03;9.30;99.90
22114;DHT22;11223;49.968;9.062;2022-11-18T09:03:28;9.20;99.90
22114;DHT22;11223;49.968;9.062;2022-11-18T09:06:05;9.20;99.90
22114;DHT22;11223;49.968;9.062;2022-11-18T09:08:30;9.20;99.90
22114;DHT22;11223;49.968;9.062;2022-11-18T09:10:56;9.20;99.90
22114;DHT22;11223;49.968;9.062;2022-11-18T09:13:21;9.20;99.90
22114;DHT22;11223;49.968;9.062;2022-11-18T09:15:47;9.10;99.90
22114;DHT22;11223;49.968;9.062;2022-11-18T09:18:13;9.10;99.90
22114;DHT22;11223;49.968;9.062;2022-11-18T09:20:38;9.10;99.90
22114;DHT22;11223;49.968;9.062;2022-11-18T09:23:04;9.10;99.90
22114;DHT22;11223;49.968;9.062;2022-11-18T09:25:29;9.10;99.90
22114;DHT22;11223;49.968;9.062;2022-11-18T09:27:55;9.10;99.90
22114;DHT22;11223;49.968;9.062;2022-11-18T09:30:21;9.10;99.90
22114;DHT22;11223;49.968;9.062;2022-11-18T09:32:46;9.00;99.90
22114;DHT22;11223;49.968;9.062;2022-11-18T09:35:12;9.00;99.90
22114;DHT22;11223;49.968;9.062;2022-11-18T09:37:38;9.00;99.90
22114;DHT22;11223;49.968;9.062;2022-11-18T09:40:04;9.00;99.90
22114;DHT22;11223;49.968;9.062;2022-11-18T09:42:56;9.00;99.90
22114;DHT22;11223;49.968;9.062;2022-11-18T09:45:27;9.10;99.90
22114;DHT22;11223;49.968;9.062;2022-11-18T09:47:57;9.10;99.90
22114;DHT22;11223;49.968;9.062;2022-11-18T09:50:25;9.10;99.90
22114;DHT22;11223;49.968;9.062;2022-11-18T09:53:00;9.10;99.90
22114;DHT22;11223;49.968;9.062;2022-11-18T09:55:27;9.10;99.90
22114;DHT22;11223;49.968;9.062;2022-11-18T09:57:56;9.10;99.90
22114;DHT22;11223;49.968;9.062;2022-11-18T10:00:25;9.10;99.90
22114;DHT22;11223;49.968;9.062;2022-11-18T10:16:44;9.40;99.90
22114;DHT22;11223;49.968;9.062;2022-11-18T10:19:38;9.40;99.90
22114;DHT22;11223;49.968;9.062;2022-11-18T10:24:42;9.50;99.90
22114;DHT22;11223;49.968;9.062;2022-11-18T10:27:11;9.60;99.90
22114;DHT22;11223;49.968;9.062;2022-11-18T10:29:38;9.60;99.90
22114;DHT22;11223;49.968;9.062;2022-11-18T10:32:06;9.60;99.90
22114;DHT22;11223;49.968;9.062;2022-11-18T10:34:34;9.60;99.90
22114;DHT22;11223;49.968;9.062;2022-11-18T10:39:57;9.70;99.90
22114;DHT22;11223;49.968;9.062;2022-11-18T10:44:51;9.80;99.90
22114;DHT22;11223;49.968;9.062;2022-11-18T10:47:26;9.80;99.90
22114;DHT22;11223;49.968;9.062;2022-11-18T10:49:58;9.80;99.90
22114;DHT22;11223;49.968;9.062;2022-11-18T10:52:24;9.90;99.90
22114;DHT22;11223;49.968;9.062;2022-11-18T10:57:41;9.80;99.90
22114;DHT22;11223;49.968;9.062;2022-11-18T11:02:57;9.90;99.90
22114;DHT22;11223;49.968;9.062;2022-11-18T11:05:23;9.90;99.90
22114;DHT22;11223;49.968;9.062;2022-11-18T11:08:04;9.90;99.90
22114;DHT22;11223;49.968;9.062;2022-11-18T11:10:30;9.90;99.90
22114;DHT22;11223;49.968;9.062;2022-11-18T11:13:03;10.00;99.90
22114;DHT22;11223;49.968;9.062;2022-11-18T11:15:38;10.00;99.90
22114;DHT22;11223;49.968;9.062;2022-11-18T11:18:11;10.10;99.90
22114;DHT22;11223;49.968;9.062;2022-11-18T11:20:56;10.10;99.90
22114;DHT22;11223;49.968;9.062;2022-11-18T11:23:23;10.10;99.90
22114;DHT22;11223;49.968;9.062;2022-11-18T11:26:01;10.20;99.90
22114;DHT22;11223;49.968;9.062;2022-11-18T11:28:35;10.20;99.90
22114;DHT22;11223;49.968;9.062;2022-11-18T11:36:48;10.20;99.90
22114;DHT22;11223;49.968;9.062;2022-11-18T11:45:41;10.40;99.90
22114;DHT22;11223;49.968;9.062;2022-11-18T11:49:22;10.40;99.90
22114;DHT22;11223;49.968;9.062;2022-11-18T11:56:45;10.60;99.90
22114;DHT22;11223;49.968;9.062;2022-11-18T12:02:13;10.60;99.90
22114;DHT22;11223;49.968;9.062;2022-11-18T12:04:50;10.50;99.90
22114;DHT22;11223;49.968;9.062;2022-11-18T12:07:25;10.50;99.90
22114;DHT22;11223;49.968;9.062;2022-11-18T12:15:48;10.50;99.90
22114;DHT22;11223;49.968;9.062;2022-11-18T12:18:23;10.40;99.90
22114;DHT22;11223;49.968;9.062;2022-11-18T12:20:52;10.40;99.90
22114;DHT22;11223;49.968;9.062;2022-11-18T12:23:32;10.40;99.90
22114;DHT22;11223;49.968;9.062;2022-11-18T12:26:00;10.40;99.90
22114;DHT22;11223;49.968;9.062;2022-11-18T12:28:32;10.40;99.90
22114;DHT22;11223;49.968;9.062;2022-11-18T12:33:46;10.30;99.90
22114;DHT22;11223;49.968;9.062;2022-11-18T12:36:25;10.30;99.90
22114;DHT22;11223;49.968;9.062;2022-11-18T12:38:51;10.30;99.90
22114;DHT22;11223;49.968;9.062;2022-11-18T12:44:26;10.30;99.90
22114;DHT22;11223;49.968;9.062;2022-11-18T12:46:53;10.40;99.90
22114;DHT22;11223;49.968;9.062;2022-11-18T12:51:56;10.50;99.90
22114;DHT22;11223;49.968;9.062;2022-11-18T12:54:38;10.70;99.90
22114;DHT22;11223;49.968;9.062;2022-11-18T12:59:41;10.80;99.90
22114;DHT22;11223;49.968;9.062;2022-11-18T13:04:36;11.00;99.90
22114;DHT22;11223;49.968;9.062;2022-11-18T13:07:04;11.00;99.90
22114;DHT22;11223;49.968;9.062;2022-11-18T13:09:33;11.00;99.90
22114;DHT22;11223;49.968;9.062;2022-11-18T13:11:59;11.00;99.90
22114;DHT22;11223;49.968;9.062;2022-11-18T13:17:28;10.90;99.90
22114;DHT22;11223;49.968;9.062;2022-11-18T13:20:35;10.90;99.90
22114;DHT22;11223;49.968;9.062;2022-11-18T13:26:05;10.90;99.90
22114;DHT22;11223;49.968;9.062;2022-11-18T13:31:16;10.80;99.90
22114;DHT22;11223;49.968;9.062;2022-11-18T13:33:45;10.80;99.90
22114;DHT22;11223;49.968;9.062;2022-11-18T13:36:22;10.80;99.90
22114;DHT22;11223;49.968;9.062;2022-11-18T13:39:00;10.80;99.90
22114;DHT22;11223;49.968;9.062;2022-11-18T13:41:28;10.80;99.90
22114;DHT22;11223;49.968;9.062;2022-11-18T13:44:23;10.80;99.90
22114;DHT22;11223;49.968;9.062;2022-11-18T13:49:42;10.70;99.90
22114;DHT22;11223;49.968;9.062;2022-11-18T13:52:15;10.70;99.90
22114;DHT22;11223;49.968;9.062;2022-11-18T13:54:42;10.70;99.90
22114;DHT22;11223;49.968;9.062;2022-11-18T13:57:16;10.60;99.90
22114;DHT22;11223;49.968;9.062;2022-11-18T13:59:45;10.60;99.90
22114;DHT22;11223;49.968;9.062;2022-11-18T14:02:12;10.60;99.90
22114;DHT22;11223;49.968;9.062;2022-11-18T14:04:50;10.60;99.90
22114;DHT22;11223;49.968;9.062;2022-11-18T14:07:34;10.60;99.90
22114;DHT22;11223;49.968;9.062;2022-11-18T14:10:03;10.60;99.90
22114;DHT22;11223;49.968;9.062;2022-11-18T14:12:31;10.60;99.90
22114;DHT22;11223;49.968;9.062;2022-11-18T14:15:18;10.70;99.90
22114;DHT22;11223;49.968;9.062;2022-11-18T14:17:59;10.80;99.90
22114;DHT22;11223;49.968;9.062;2022-11-18T14:20:27;10.80;99.90
22114;DHT22;11223;49.968;9.062;2022-11-18T14:22:58;10.80;99.90
22114;DHT22;11223;49.968;9.062;2022-11-18T14:25:28;10.80;99.90
22114;DHT22;11223;49.968;9.062;2022-11-18T14:30:55;10.80;99.90
22114;DHT22;11223;49.968;9.062;2022-11-18T14:33:26;10.70;99.90
22114;DHT22;11223;49.968;9.062;2022-11-18T14:36:13;10.70;99.90
22114;DHT22;11223;49.968;9.062;2022-11-18T14:38:48;10.70;99.90
22114;DHT22;11223;49.968;9.062;2022-11-18T14:41:15;10.60;99.90
22114;DHT22;11223;49.968;9.062;2022-11-18T14:44:02;10.50;99.90
22114;DHT22;11223;49.968;9.062;2022-11-18T14:46:27;10.40;99.90
22114;DHT22;11223;49.968;9.062;2022-11-18T14:48:53;10.40;99.90
22114;DHT22;11223;49.968;9.062;2022-11-18T14:51:19;10.40;99.90
22114;DHT22;11223;49.968;9.062;2022-11-18T14:53:44;10.40;99.90
22114;DHT22;11223;49.968;9.062;2022-11-18T14:56:13;10.30;99.90
22114;DHT22;11223;49.968;9.062;2022-11-18T14:58:40;10.30;99.90
22114;DHT22;11223;49.968;9.062;2022-11-18T15:01:10;10.30;99.90
22114;DHT22;11223;49.968;9.062;2022-11-18T15:03:35;10.20;99.90
22114;DHT22;11223;49.968;9.062;2022-11-18T15:06:01;10.20;99.90
22114;DHT22;11223;49.968;9.062;2022-11-18T15:08:26;10.20;99.90
22114;DHT22;11223;49.968;9.062;2022-11-18T15:10:52;10.10;99.90
22114;DHT22;11223;49.968;9.062;2022-11-18T15:13:18;10.10;99.90
22114;DHT22;11223;49.968;9.062;2022-11-18T15:15:43;10.00;99.90
22114;DHT22;11223;49.968;9.062;2022-11-18T15:18:09;9.90;99.90
22114;DHT22;11223;49.968;9.062;2022-11-18T15:20:34;9.90;99.90
22114;DHT22;11223;49.968;9.062;2022-11-18T15:23:00;9.80;99.90
22114;DHT22;11223;49.968;9.062;2022-11-18T15:25:25;9.80;99.90
22114;DHT22;11223;49.968;9.062;2022-11-18T15:27:51;9.70;99.90
22114;DHT22;11223;49.968;9.062;2022-11-18T15:30:17;9.70;99.90
22114;DHT22;11223;49.968;9.062;2022-11-18T15:32:42;9.60;99.90
22114;DHT22;11223;49.968;9.062;2022-11-18T15:35:09;9.60;99.90
22114;DHT22;11223;49.968;9.062;2022-11-18T15:37:35;9.60;99.90
22114;DHT22;11223;49.968;9.062;2022-11-18T15:40:01;9.60;99.90
22114;DHT22;11223;49.968;9.062;2022-11-18T15:42:27;9.60;99.90
22114;DHT22;11223;49.968;9.062;2022-11-18T15:44:52;9.50;99.90
22114;DHT22;11223;49.968;9.062;2022-11-18T15:47:18;9.50;99.90
22114;DHT22;11223;49.968;9.062;2022-11-18T15:49:43;9.50;99.90
22114;DHT22;11223;49.968;9.062;2022-11-18T15:52:10;9.50;99.90
22114;DHT22;11223;49.968;9.062;2022-11-18T15:54:36;9.50;99.90
22114;DHT22;11223;49.968;9.062;2022-11-18T15:57:02;9.40;99.90
22114;DHT22;11223;49.968;9.062;2022-11-18T15:59:28;9.40;99.90
22114;DHT22;11223;49.968;9.062;2022-11-18T16:01:54;9.40;99.90
22114;DHT22;11223;49.968;9.062;2022-11-18T16:04:20;9.40;99.90
22114;DHT22;11223;49.968;9.062;2022-11-18T16:06:46;9.30;99.90
22114;DHT22;11223;49.968;9.062;2022-11-18T16:09:13;9.30;99.90
22114;DHT22;11223;49.968;9.062;2022-11-18T16:11:39;9.30;99.90
22114;DHT22;11223;49.968;9.062;2022-11-18T16:14:23;9.30;99.90
22114;DHT22;11223;49.968;9.062;2022-11-18T16:16:52;9.30;99.90
22114;DHT22;11223;49.968;9.062;2022-11-18T16:19:20;9.30;99.90
22114;DHT22;11223;49.968;9.062;2022-11-18T16:21:48;9.30;99.90
22114;DHT22;11223;49.968;9.062;2022-11-18T16:24:17;9.30;99.90
22114;DHT22;11223;49.968;9.062;2022-11-18T16:26:43;9.30;99.90
22114;DHT22;11223;49.968;9.062;2022-11-18T16:29:10;9.30;99.90
22114;DHT22;11223;49.968;9.062;2022-11-18T16:31:36;9.20;99.90
22114;DHT22;11223;49.968;9.062;2022-11-18T16:36:33;9.20;99.90
22114;DHT22;11223;49.968;9.062;2022-11-18T16:39:04;9.10;99.90
22114;DHT22;11223;49.968;9.062;2022-11-18T16:41:30;9.10;99.90
22114;DHT22;11223;49.968;9.062;2022-11-18T16:43:56;9.00;99.90
22114;DHT22;11223;49.968;9.062;2022-11-18T16:46:23;8.90;99.90
22114;DHT22;11223;49.968;9.062;2022-11-18T16:48:49;8.80;99.90
22114;DHT22;11223;49.968;9.062;2022-11-18T16:53:41;8.60;99.90
22114;DHT22;11223;49.968;9.062;2022-11-18T16:56:07;8.50;99.90
22114;DHT22;11223;49.968;9.062;2022-11-18T16:58:32;8.50;99.90
22114;DHT22;11223;49.968;9.062;2022-11-18T17:00:58;8.40;99.90
22114;DHT22;11223;49.968;9.062;2022-11-18T17:03:23;8.30;99.90
22114;DHT22;11223;49.968;9.062;2022-11-18T17:05:49;8.20;99.90
22114;DHT22;11223;49.968;9.062;2022-11-18T17:08:15;8.10;99.90
22114;DHT22;11223;49.968;9.062;2022-11-18T17:10:40;8.00;99.90
22114;DHT22;11223;49.968;9.062;2022-11-18T17:13:06;7.90;99.90
22114;DHT22;11223;49.968;9.062;2022-11-18T17:15:34;7.90;99.90
22114;DHT22;11223;49.968;9.062;2022-11-18T17:18:00;7.80;99.90
22114;DHT22;11223;49.968;9.062;2022-11-18T17:20:25;7.80;99.90
22114;DHT22;11223;49.968;9.062;2022-11-18T17:22:51;7.70;99.90
22114;DHT22;11223;49.968;9.062;2022-11-18T17:25:17;7.70;99.90
22114;DHT22;11223;49.968;9.062;2022-11-18T17:27:42;7.60;99.90
22114;DHT22;11223;49.968;9.062;2022-11-18T17:30:08;7.50;99.90
22114;DHT22;11223;49.968;9.062;2022-11-18T17:32:35;7.50;99.90
22114;DHT22;11223;49.968;9.062;2022-11-18T17:35:00;7.50;99.90
22114;DHT22;11223;49.968;9.062;2022-11-18T17:37:28;7.40;99.90
22114;DHT22;11223;49.968;9.062;2022-11-18T17:39:53;7.40;99.90
22114;DHT22;11223;49.968;9.062;2022-11-18T17:42:19;7.40;99.90
22114;DHT22;11223;49.968;9.062;2022-11-18T17:44:47;7.30;99.90